Sunbright, Tennessee
Current Conditions -  °F | °C
As of 9:53 PM on Friday 31 Oct 2014 (Local Time) from KOQT Reporting Station
Overcast Overcast  
Wind Chill: 40°   Ceiling: 3400
Heat Index: 40°   Visibility: 10mi
Dew Point: 32°   Wind: 3mph
Humidity: 73%   Direction: 350°N
Pressure: 30.01"   Gusts: NA
Location:  36.24°N, 84.67°W
Report Text: KOQT 010153Z AUTO 35003KT 10SM BKN034 BKN049 OVC075 04/00 A3001 RMK AO2 RAB0055E06 SLP169 P0001 T00440000
Loading
Personal Weather Stations






























Interactive Weather Map
Tropical Storm Tracking
New forecast layout! Learn more

10-Day Weather Forecast

Advertisements
Track Severe Weather on mobile